createdAt,value
2022-07-26T00:01:21.813Z,100179.06
2022-07-26T00:03:50.996Z,100182.75
2022-07-26T00:06:18.124Z,100187.41
2022-07-26T00:08:47.282Z,100181.31
2022-07-26T00:11:14.298Z,100181.50
2022-07-26T00:13:41.103Z,100175.38
2022-07-26T00:16:07.805Z,100186.22
2022-07-26T00:18:34.498Z,100181.03
2022-07-26T00:21:01.036Z,100183.00
2022-07-26T00:23:27.839Z,100182.31
2022-07-26T00:25:54.399Z,100185.25
2022-07-26T00:28:21.050Z,100187.16
2022-07-26T00:30:47.871Z,100189.06
2022-07-26T00:33:14.513Z,100182.97
2022-07-26T00:35:41.142Z,100181.34
2022-07-26T00:38:07.919Z,100191.22
2022-07-26T00:40:35.565Z,100185.03
2022-07-26T00:43:02.294Z,100186.94
2022-07-26T00:45:28.823Z,100187.97
2022-07-26T00:47:55.496Z,100184.50
2022-07-26T00:50:22.112Z,100178.38
2022-07-26T00:52:50.403Z,100179.41
2022-07-26T00:55:18.017Z,100181.25
2022-07-26T00:57:45.636Z,100183.94
2022-07-26T01:00:18.376Z,100180.41
2022-07-26T01:02:45.724Z,100181.38
2022-07-26T01:05:12.442Z,100181.47
2022-07-26T01:07:39.554Z,100181.53
2022-07-26T01:10:10.666Z,100183.47
2022-07-26T01:12:37.176Z,100187.16
2022-07-26T01:15:04.081Z,100189.06
2022-07-26T01:17:30.601Z,100181.94
2022-07-26T01:19:57.140Z,100186.34
2022-07-26T01:22:24.124Z,100174.69
2022-07-26T01:24:50.709Z,100181.78
2022-07-26T01:27:17.529Z,100168.28
2022-07-26T01:29:44.090Z,100176.19
2022-07-26T01:32:10.613Z,100168.06
2022-07-26T01:34:37.130Z,100173.38
2022-07-26T01:37:04.080Z,100174.19
2022-07-26T01:39:30.609Z,100176.78
2022-07-26T01:41:57.346Z,100182.94
2022-07-26T01:44:24.179Z,100178.38
2022-07-26T01:46:50.694Z,100178.28
2022-07-26T01:49:17.442Z,100182.72
2022-07-26T01:51:44.316Z,100181.81
2022-07-26T01:54:11.550Z,100188.94
2022-07-26T01:56:38.458Z,100188.03
2022-07-26T01:59:05.146Z,100193.34
2022-07-26T02:01:39.209Z,100199.56
2022-07-26T02:04:08.603Z,100199.50
2022-07-26T02:06:35.544Z,100204.84
2022-07-26T02:09:04.095Z,100208.31
2022-07-26T02:11:33.023Z,100202.03
2022-07-26T02:13:59.640Z,100210.03
2022-07-26T02:16:26.844Z,100210.03
2022-07-26T02:18:53.656Z,100210.03
2022-07-26T02:21:20.135Z,100212.69
2022-07-26T02:23:46.685Z,100210.06
2022-07-26T02:26:13.237Z,100204.75
2022-07-26T02:28:39.847Z,100202.06
2022-07-26T02:31:06.440Z,100211.97
2022-07-26T02:33:33.109Z,100203.97
2022-07-26T02:35:59.641Z,100211.19
2022-07-26T02:38:26.181Z,100208.53
2022-07-26T02:40:52.941Z,100197.81
2022-07-26T02:43:19.868Z,100201.44
2022-07-26T02:46:01.511Z,100200.53
2022-07-26T02:48:30.308Z,100202.28
2022-07-26T02:50:56.935Z,100211.22
2022-07-26T02:53:23.497Z,100212.97
2022-07-26T02:55:50.010Z,100213.84
2022-07-26T02:58:16.719Z,100205.81
2022-07-26T03:00:43.302Z,100218.31
2022-07-26T03:03:13.929Z,100207.53
2022-07-26T03:05:40.814Z,100215.50
2022-07-26T03:08:07.666Z,100212.81
2022-07-26T03:10:34.165Z,100213.75
2022-07-26T03:13:00.781Z,100215.50
2022-07-26T03:15:27.505Z,100208.38
2022-07-26T03:17:55.223Z,100214.66
2022-07-26T03:20:21.773Z,100220.94
2022-07-26T03:22:48.536Z,100219.19
2022-07-26T03:25:15.076Z,100216.53
2022-07-26T03:27:41.706Z,100217.47
2022-07-26T03:30:08.972Z,100219.28
2022-07-26T03:32:35.665Z,100218.38
2022-07-26T03:35:02.145Z,100217.53
2022-07-26T03:37:44.735Z,100227.38
2022-07-26T03:40:14.618Z,100223.81
2022-07-26T03:42:41.194Z,100222.91
2022-07-26T03:45:09.342Z,100218.44
2022-07-26T03:47:37.188Z,100222.00
2022-07-26T03:50:05.260Z,100222.91
2022-07-26T03:52:31.953Z,100217.53
2022-07-26T03:54:58.836Z,100228.25
2022-07-26T03:57:28.407Z,100226.44
2022-07-26T03:59:55.109Z,100228.25
2022-07-26T04:02:21.821Z,100229.13
2022-07-26T04:04:48.441Z,100237.31
2022-07-26T04:07:16.001Z,100235.63
2022-07-26T04:09:42.959Z,100232.22
2022-07-26T04:12:09.683Z,100233.25
2022-07-26T04:14:36.242Z,100227.94
2022-07-26T04:17:02.797Z,100230.66
2022-07-26T04:19:29.613Z,100237.84
2022-07-26T04:21:56.182Z,100230.75
2022-07-26T04:24:25.299Z,100231.63
2022-07-26T04:26:52.457Z,100228.06
2022-07-26T04:29:18.961Z,100225.38
2022-07-26T04:31:45.584Z,100228.97
2022-07-26T04:34:12.157Z,100228.91
2022-07-26T04:36:39.140Z,100232.44
2022-07-26T04:39:05.711Z,100218.97
2022-07-26T04:41:32.269Z,100226.06
2022-07-26T04:43:58.882Z,100224.16
2022-07-26T04:46:25.679Z,100230.38
2022-07-26T04:48:52.357Z,100232.94
2022-07-26T04:51:18.923Z,100226.66
2022-07-26T04:53:45.428Z,100231.94
2022-07-26T04:56:12.166Z,100237.22
2022-07-26T04:58:38.667Z,100231.84
2022-07-26T05:01:12.433Z,100240.75
2022-07-26T05:03:39.840Z,100237.06
2022-07-26T05:06:06.894Z,100232.53
2022-07-26T05:08:33.445Z,100235.94
2022-07-26T05:11:00.012Z,100233.94
2022-07-26T05:13:30.216Z,100232.78
2022-07-26T05:15:58.366Z,100237.06
2022-07-26T05:18:25.341Z,100238.59
2022-07-26T05:20:52.341Z,100238.31
2022-07-26T05:23:20.459Z,100225.56
2022-07-26T05:25:47.382Z,100233.41
2022-07-26T05:28:13.906Z,100246.63
2022-07-26T05:30:40.450Z,100235.69
2022-07-26T05:33:07.003Z,100228.44
2022-07-26T05:35:33.520Z,100240.00
2022-07-26T05:38:00.095Z,100247.03
2022-07-26T05:40:26.606Z,100229.03
2022-07-26T05:42:53.168Z,100238.06
2022-07-26T05:45:19.969Z,100233.63
2022-07-26T05:47:49.975Z,100236.31
2022-07-26T05:50:16.779Z,100242.63
2022-07-26T05:52:43.492Z,100242.44
2022-07-26T05:55:10.165Z,100244.06
2022-07-26T05:57:36.767Z,100240.97
2022-07-26T06:00:04.689Z,100238.84
2022-07-26T06:02:38.569Z,100242.13
2022-07-26T06:05:05.820Z,100240.03
2022-07-26T06:07:32.525Z,100241.50
2022-07-26T06:09:59.970Z,100245.66
2022-07-26T06:12:26.689Z,100242.88
2022-07-26T06:14:53.154Z,100249.03
2022-07-26T06:17:19.735Z,100242.69
2022-07-26T06:19:47.872Z,100245.22
2022-07-26T06:22:15.115Z,100237.50
2022-07-26T06:24:41.637Z,100255.50
2022-07-26T06:27:08.411Z,100249.41
2022-07-26T06:29:34.929Z,100252.06
2022-07-26T06:32:01.639Z,100249.28
2022-07-26T06:34:28.714Z,100241.91
2022-07-26T06:36:55.349Z,100252.63
2022-07-26T06:39:21.854Z,100254.00
2022-07-26T06:41:48.503Z,100259.97
2022-07-26T06:44:22.621Z,100261.53
2022-07-26T06:46:49.773Z,100263.16
2022-07-26T06:49:20.549Z,100257.03
2022-07-26T06:51:48.881Z,100254.28
2022-07-26T06:54:15.723Z,100260.72
2022-07-26T06:56:42.326Z,100262.91
2022-07-26T06:59:09.565Z,100273.09
2022-07-26T07:01:57.746Z,100277.00
2022-07-26T07:04:22.897Z,100275.41
2022-07-26T07:06:49.593Z,100270.78
2022-07-26T07:09:16.188Z,100273.44
2022-07-26T07:11:44.378Z,100279.63
2022-07-26T07:14:11.956Z,100280.09
2022-07-26T07:16:38.826Z,100282.56
2022-07-26T07:19:05.484Z,100286.31
2022-07-26T07:21:33.746Z,100283.34
2022-07-26T07:24:00.785Z,100291.69
2022-07-26T07:26:29.313Z,100291.28
2022-07-26T07:28:55.958Z,100290.13
2022-07-26T07:31:28.732Z,100288.97
2022-07-26T07:33:57.459Z,100290.84
2022-07-26T07:36:24.699Z,100289.22
2022-07-26T07:38:51.381Z,100289.53
2022-07-26T07:41:18.945Z,100290.97
2022-07-26T07:43:45.563Z,100293.72
2022-07-26T07:46:12.839Z,100289.88
2022-07-26T07:48:47.417Z,100291.28
2022-07-26T07:51:14.683Z,100286.66
2022-07-26T07:53:41.529Z,100279.59
2022-07-26T07:56:08.209Z,100288.91
2022-07-26T07:58:34.824Z,100286.28
2022-07-26T08:01:01.523Z,100288.22
2022-07-26T08:03:38.955Z,100283.53
2022-07-26T08:06:08.337Z,100291.72
2022-07-26T08:08:37.360Z,100285.78
2022-07-26T08:11:05.230Z,100285.19
2022-07-26T08:13:34.671Z,100289.34
2022-07-26T08:16:09.573Z,100285.44
2022-07-26T08:18:36.461Z,100298.84
2022-07-26T08:21:08.536Z,100287.22
2022-07-26T08:23:35.255Z,100289.25
2022-07-26T08:26:06.277Z,100284.59
2022-07-26T08:28:58.389Z,100279.63
2022-07-26T08:31:21.147Z,100291.59
2022-07-26T08:33:48.651Z,100286.47
2022-07-26T08:36:17.122Z,100292.34
2022-07-26T08:38:44.621Z,100291.16
2022-07-26T08:41:14.208Z,100287.09
2022-07-26T08:43:48.887Z,100293.19
2022-07-26T08:46:24.677Z,100289.59
2022-07-26T08:48:52.741Z,100305.06
2022-07-26T08:51:22.150Z,100294.06
2022-07-26T08:53:49.779Z,100305.84
2022-07-26T08:56:16.278Z,100311.03
2022-07-26T08:58:43.911Z,100321.47
2022-07-26T09:01:12.950Z,100315.84
2022-07-26T09:03:40.604Z,100324.22
2022-07-26T09:06:21.750Z,100314.56
2022-07-26T09:08:51.298Z,100336.00
2022-07-26T09:11:24.013Z,100325.22
2022-07-26T09:13:59.082Z,100330.75
2022-07-26T09:16:26.755Z,100328.66
2022-07-26T09:18:53.895Z,100330.84
2022-07-26T09:21:27.466Z,100335.75
2022-07-26T09:23:55.129Z,100366.81
2022-07-26T09:26:23.682Z,100387.34
2022-07-26T09:29:03.583Z,100397.44
2022-07-26T09:31:30.323Z,100404.16
2022-07-26T09:33:58.929Z,100396.72
2022-07-26T09:36:27.614Z,100417.72
2022-07-26T09:38:59.116Z,100413.44
2022-07-26T09:41:30.219Z,100426.38
2022-07-26T09:44:00.456Z,100439.31
2022-07-26T09:46:29.743Z,100447.66
2022-07-26T09:49:13.448Z,100446.28
2022-07-26T09:51:42.232Z,100447.41
2022-07-26T09:54:11.046Z,100443.97
2022-07-26T09:56:49.895Z,100444.06
2022-07-26T09:59:18.942Z,100456.75
2022-07-26T10:01:45.825Z,100457.66
2022-07-26T10:04:13.991Z,100451.28
2022-07-26T10:06:42.285Z,100459.19
2022-07-26T10:09:09.737Z,100455.41
2022-07-26T10:12:06.916Z,100459.84
2022-07-26T10:14:33.476Z,100465.06
2022-07-26T10:17:01.142Z,100467.75
2022-07-26T10:19:45.256Z,100479.19
2022-07-26T10:22:31.155Z,100476.50
2022-07-26T10:25:20.009Z,100473.88
2022-07-26T10:27:55.078Z,100471.19
2022-07-26T10:30:23.246Z,100478.41
2022-07-26T10:33:13.495Z,100481.91
2022-07-26T10:35:44.826Z,100472.78
2022-07-26T10:38:31.648Z,100479.66
2022-07-26T10:41:09.040Z,100481.13
2022-07-26T10:43:41.050Z,100481.22
2022-07-26T10:46:20.551Z,100488.22
2022-07-26T10:49:03.626Z,100492.59
2022-07-26T10:51:39.426Z,100500.06
2022-07-26T10:54:09.415Z,100499.47
2022-07-26T10:56:36.629Z,100496.34
2022-07-26T10:59:05.414Z,100501.00
2022-07-26T11:01:40.838Z,100500.25
2022-07-26T11:04:27.750Z,100498.91
2022-07-26T11:07:00.413Z,100495.00
2022-07-26T11:09:34.514Z,100496.31
2022-07-26T11:12:20.070Z,100501.78
2022-07-26T11:14:48.542Z,100497.25
2022-07-26T11:17:25.154Z,100504.69
2022-07-26T11:19:52.160Z,100505.53
2022-07-26T11:22:18.924Z,100517.13
2022-07-26T11:24:45.652Z,100527.44
2022-07-26T11:27:12.514Z,100538.34
2022-07-26T11:29:40.308Z,100536.09
2022-07-26T11:32:17.862Z,100535.56
2022-07-26T11:34:45.846Z,100542.16
2022-07-26T11:37:13.466Z,100544.44
2022-07-26T11:39:40.073Z,100539.28
2022-07-26T11:42:13.239Z,100547.25
2022-07-26T11:44:44.247Z,100537.22
2022-07-26T11:47:20.015Z,100551.84
2022-07-26T11:50:00.893Z,100535.25
2022-07-26T11:52:33.676Z,100541.41
2022-07-26T11:55:00.263Z,100540.53
2022-07-26T11:57:32.174Z,100542.97
2022-07-26T12:00:00.409Z,100543.91
2022-07-26T12:02:28.533Z,100543.97
2022-07-26T12:05:14.186Z,100537.88
2022-07-26T12:07:56.080Z,100535.00
2022-07-26T12:10:23.158Z,100531.53
2022-07-26T12:12:50.210Z,100537.13
2022-07-26T12:15:16.854Z,100528.88
2022-07-26T12:17:59.680Z,100532.41
2022-07-26T12:20:28.109Z,100528.28
2022-07-26T12:23:04.982Z,100543.75
2022-07-26T12:25:32.020Z,100538.91
2022-07-26T12:27:58.561Z,100538.69
2022-07-26T12:30:30.748Z,100540.56
2022-07-26T12:33:02.140Z,100540.34
2022-07-26T12:35:35.788Z,100544.72
2022-07-26T12:38:03.466Z,100535.22
2022-07-26T12:40:39.540Z,100547.66
2022-07-26T12:43:06.076Z,100543.88
2022-07-26T12:45:36.238Z,100544.22
2022-07-26T12:48:07.054Z,100543.31
2022-07-26T12:50:33.854Z,100531.50
2022-07-26T12:53:08.772Z,100534.16
2022-07-26T12:55:36.128Z,100525.91
2022-07-26T12:58:02.881Z,100536.59
2022-07-26T13:00:29.816Z,100534.09
2022-07-26T13:02:57.642Z,100537.56
2022-07-26T13:05:24.965Z,100540.59
2022-07-26T13:07:52.139Z,100542.13
2022-07-26T13:10:35.592Z,100543.06
2022-07-26T13:13:03.713Z,100551.53
2022-07-26T13:15:36.068Z,100547.25
2022-07-26T13:18:08.768Z,100545.03
2022-07-26T13:20:39.328Z,100551.41
2022-07-26T13:23:11.588Z,100538.47
2022-07-26T13:25:40.374Z,100548.53
2022-07-26T13:28:08.150Z,100536.09
2022-07-26T13:30:37.473Z,100540.69
2022-07-26T13:33:04.729Z,100551.41
2022-07-26T13:35:31.227Z,100562.97
2022-07-26T13:37:57.816Z,100549.50
2022-07-26T13:40:30.683Z,100565.03
2022-07-26T13:42:57.973Z,100549.97
2022-07-26T13:45:24.485Z,100546.41
2022-07-26T13:47:55.921Z,100545.09
2022-07-26T13:50:22.748Z,100545.78
2022-07-26T13:52:49.334Z,100543.38
2022-07-26T13:55:16.166Z,100550.81
2022-07-26T13:57:55.915Z,100550.53
2022-07-26T14:00:23.149Z,100549.84
2022-07-26T14:02:49.931Z,100542.56
2022-07-26T14:05:16.638Z,100547.91
2022-07-26T14:07:43.570Z,100557.25
2022-07-26T14:10:10.494Z,100555.84
2022-07-26T14:12:38.154Z,100552.38
2022-07-26T14:15:11.238Z,100571.41
2022-07-26T14:17:39.739Z,100562.94
2022-07-26T14:20:07.058Z,100565.28
2022-07-26T14:22:33.596Z,100569.00
2022-07-26T14:25:00.299Z,100572.84
2022-07-26T14:27:26.968Z,100574.03
2022-07-26T14:29:53.586Z,100580.53
2022-07-26T14:32:22.105Z,100574.13
2022-07-26T14:34:49.909Z,100582.75
2022-07-26T14:37:44.474Z,100586.09
2022-07-26T14:40:05.771Z,100581.03
2022-07-26T14:42:32.512Z,100578.66
2022-07-26T14:44:59.201Z,100581.50
2022-07-26T14:47:25.803Z,100575.06
2022-07-26T14:49:52.441Z,100582.13
2022-07-26T14:52:19.171Z,100583.38
2022-07-26T14:54:45.729Z,100583.72
2022-07-26T14:57:12.292Z,100579.63
2022-07-26T14:59:38.826Z,100579.38
2022-07-26T15:02:05.970Z,100573.91
2022-07-26T15:04:33.310Z,100589.28
2022-07-26T15:07:00.129Z,100589.03
2022-07-26T15:09:26.621Z,100584.97
2022-07-26T15:11:53.450Z,100589.16
2022-07-26T15:14:19.991Z,100588.28
2022-07-26T15:16:46.651Z,100582.78
2022-07-26T15:19:13.502Z,100582.31
2022-07-26T15:21:40.174Z,100588.09
2022-07-26T15:24:07.550Z,100581.28
2022-07-26T15:26:35.079Z,100581.13
2022-07-26T15:29:01.617Z,100583.38
2022-07-26T15:31:36.620Z,100578.09
2022-07-26T15:34:07.628Z,100582.06
2022-07-26T15:36:34.644Z,100590.66
2022-07-26T15:39:14.665Z,100582.00
2022-07-26T15:41:43.542Z,100593.78
2022-07-26T15:44:11.579Z,100588.53
2022-07-26T15:46:39.842Z,100589.72
2022-07-26T15:49:07.611Z,100594.34
2022-07-26T15:51:34.527Z,100589.34
2022-07-26T15:54:03.031Z,100594.06
2022-07-26T15:56:29.735Z,100595.31
2022-07-26T15:58:56.440Z,100588.25
2022-07-26T16:01:23.081Z,100586.34
2022-07-26T16:03:50.229Z,100595.63
2022-07-26T16:06:17.418Z,100595.06
2022-07-26T16:09:13.535Z,100595.28
2022-07-26T16:11:31.365Z,100590.56
2022-07-26T16:14:01.407Z,100585.50
2022-07-26T16:16:30.042Z,100586.59
2022-07-26T16:18:56.851Z,100602.09
2022-07-26T16:21:24.052Z,100593.03
2022-07-26T16:23:51.128Z,100596.28
2022-07-26T16:26:18.326Z,100592.66
2022-07-26T16:28:45.236Z,100600.16
2022-07-26T16:31:12.210Z,100589.38
2022-07-26T16:33:41.970Z,100586.41
2022-07-26T16:36:14.048Z,100586.22
2022-07-26T16:38:40.586Z,100587.94
2022-07-26T16:41:07.260Z,100591.28
2022-07-26T16:43:34.590Z,100599.84
2022-07-26T16:46:01.831Z,100605.34
2022-07-26T16:48:28.497Z,100600.31
2022-07-26T16:50:55.096Z,100602.41
2022-07-26T16:53:21.597Z,100601.38
2022-07-26T16:55:51.286Z,100604.94
2022-07-26T16:58:18.634Z,100604.88
2022-07-26T17:00:46.126Z,100615.34
2022-07-26T17:03:15.725Z,100605.00
2022-07-26T17:05:43.746Z,100605.31
2022-07-26T17:08:10.493Z,100616.84
2022-07-26T17:10:37.132Z,100623.25
2022-07-26T17:13:04.093Z,100615.78
2022-07-26T17:15:30.571Z,100612.34
2022-07-26T17:17:57.178Z,100617.69
2022-07-26T17:20:23.722Z,100615.13
2022-07-26T17:22:50.297Z,100611.72
2022-07-26T17:25:16.995Z,100622.69
2022-07-26T17:27:43.880Z,100629.16
2022-07-26T17:30:11.384Z,100625.00
2022-07-26T17:32:38.169Z,100627.22
2022-07-26T17:35:06.425Z,100627.72
2022-07-26T17:37:35.127Z,100628.03
2022-07-26T17:40:04.973Z,100638.28
2022-07-26T17:42:35.090Z,100629.66
2022-07-26T17:45:01.812Z,100645.13
2022-07-26T17:47:30.483Z,100638.22
2022-07-26T17:52:52.661Z,100630.47
2022-07-26T17:55:20.399Z,100622.44
2022-07-26T17:57:48.308Z,100623.44
2022-07-26T18:00:18.954Z,100630.66
2022-07-26T18:02:45.871Z,100620.81
2022-07-26T18:05:12.593Z,100623.53
2022-07-26T18:07:39.814Z,100622.59
2022-07-26T18:10:07.660Z,100633.34
2022-07-26T18:12:34.279Z,100626.38
2022-07-26T18:15:00.808Z,100629.28
2022-07-26T18:17:27.466Z,100627.63
2022-07-26T18:19:54.020Z,100628.59
2022-07-26T18:22:20.643Z,100633.19
2022-07-26T18:24:47.138Z,100628.81
2022-07-26T18:27:13.675Z,100632.47
2022-07-26T18:29:40.234Z,100637.00
2022-07-26T18:32:06.798Z,100644.91
2022-07-26T18:34:34.077Z,100633.53
2022-07-26T18:37:00.757Z,100640.59
2022-07-26T18:39:32.572Z,100642.34
2022-07-26T18:42:00.208Z,100643.28
2022-07-26T18:44:26.734Z,100650.66
2022-07-26T18:46:53.426Z,100649.09
2022-07-26T18:49:21.175Z,100657.34
2022-07-26T18:51:49.021Z,100651.28
2022-07-26T18:54:16.823Z,100651.47
2022-07-26T18:56:43.441Z,100653.41
2022-07-26T18:59:10.337Z,100661.69
2022-07-26T19:01:37.483Z,100666.41
2022-07-26T19:04:07.072Z,100668.47
2022-07-26T19:06:34.916Z,100676.69
2022-07-26T19:09:01.562Z,100672.38
2022-07-26T19:11:29.609Z,100670.72
2022-07-26T19:13:56.196Z,100673.53
2022-07-26T19:16:22.906Z,100682.59
2022-07-26T19:18:52.718Z,100683.59
2022-07-26T19:21:22.042Z,100690.88
2022-07-26T19:23:48.619Z,100684.69
2022-07-26T19:26:15.087Z,100699.06
2022-07-26T19:28:41.703Z,100692.84
2022-07-26T19:31:08.292Z,100695.66
2022-07-26T19:33:34.844Z,100695.69
2022-07-26T19:36:01.510Z,100705.63
2022-07-26T19:38:28.105Z,100701.22
2022-07-26T19:40:55.218Z,100704.88
2022-07-26T19:43:22.634Z,100706.78
2022-07-26T19:45:49.492Z,100708.59
2022-07-26T19:48:16.087Z,100711.34
2022-07-26T19:50:42.587Z,100716.78
2022-07-26T19:53:09.076Z,100714.13
2022-07-26T19:55:38.486Z,100715.06
2022-07-26T19:58:05.193Z,100717.81
2022-07-26T20:00:31.677Z,100719.63
2022-07-26T20:02:58.348Z,100719.66
2022-07-26T20:05:24.925Z,100716.97
2022-07-26T20:07:52.953Z,100723.28
2022-07-26T20:10:19.701Z,100720.66
2022-07-26T20:12:46.231Z,100722.47
2022-07-26T20:15:14.355Z,100726.06
2022-07-26T20:17:41.501Z,100728.78
2022-07-26T20:20:09.704Z,100728.88
2022-07-26T20:22:36.694Z,100719.09
2022-07-26T20:25:03.510Z,100726.25
2022-07-26T20:27:30.196Z,100721.81
2022-07-26T20:30:00.874Z,100726.34
2022-07-26T20:32:27.931Z,100726.41
2022-07-26T20:34:54.692Z,100732.69
2022-07-26T20:37:21.327Z,100731.84
2022-07-26T20:39:47.853Z,100739.91
2022-07-26T20:42:21.227Z,100737.25
2022-07-26T20:44:48.244Z,100739.16
2022-07-26T20:47:15.229Z,100739.22
2022-07-26T20:49:41.761Z,100747.28
2022-07-26T20:52:08.434Z,100754.44
2022-07-26T20:54:35.129Z,100752.69
2022-07-26T20:57:04.100Z,100758.03
2022-07-26T20:59:32.308Z,100760.75
2022-07-26T21:01:59.057Z,100759.00
2022-07-26T21:04:25.624Z,100769.78
2022-07-26T21:06:52.253Z,100766.28
2022-07-26T21:09:19.843Z,100772.63
2022-07-26T21:11:46.758Z,100765.63
2022-07-26T21:14:13.397Z,100771.88
2022-07-26T21:16:40.143Z,100775.53
2022-07-26T21:19:06.938Z,100786.28
2022-07-26T21:21:34.245Z,100786.38
2022-07-26T21:24:00.904Z,100789.16
2022-07-26T21:26:27.481Z,100789.19
2022-07-26T21:28:54.091Z,100781.22
2022-07-26T21:31:21.128Z,100790.13
2022-07-26T21:33:47.684Z,100797.28
2022-07-26T21:36:14.358Z,100793.75
2022-07-26T21:38:41.915Z,100798.25
2022-07-26T21:41:08.509Z,100792.06
2022-07-26T21:43:35.748Z,100806.34
2022-07-26T21:46:02.984Z,100806.34
2022-07-26T21:48:30.197Z,100808.13
2022-07-26T21:50:56.809Z,100804.63
2022-07-26T21:53:23.321Z,100801.09
2022-07-26T21:55:49.800Z,100810.91
2022-07-26T21:58:17.097Z,100822.50
2022-07-26T22:00:43.894Z,100810.00
2022-07-26T22:03:11.744Z,100820.72
2022-07-26T22:05:38.270Z,100817.19
2022-07-26T22:08:06.868Z,100819.00
2022-07-26T22:10:35.186Z,100824.34
2022-07-26T22:13:10.672Z,100822.59
2022-07-26T22:15:37.327Z,100823.50
2022-07-26T22:18:04.102Z,100825.31
2022-07-26T22:20:32.367Z,100823.53
2022-07-26T22:23:03.402Z,100820.03
2022-07-26T22:25:31.849Z,100817.34
2022-07-26T22:27:59.604Z,100827.19
2022-07-26T22:30:28.443Z,100823.69
2022-07-26T22:32:56.553Z,100818.34
2022-07-26T22:35:24.929Z,100814.81
2022-07-26T22:37:53.540Z,100814.84
2022-07-26T22:40:21.707Z,100819.31
2022-07-26T22:42:48.517Z,100820.22
2022-07-26T22:45:15.868Z,100820.25
2022-07-26T22:47:46.951Z,100831.88
2022-07-26T22:50:23.409Z,100830.13
2022-07-26T22:52:52.199Z,100822.16
2022-07-26T22:55:18.887Z,100829.28
2022-07-26T22:57:45.679Z,100835.56
2022-07-26T23:00:14.949Z,100826.69
2022-07-26T23:02:41.955Z,100819.69
2022-07-26T23:05:09.324Z,100828.66
2022-07-26T23:07:37.080Z,100824.28
2022-07-26T23:10:05.974Z,100820.72
2022-07-26T23:12:32.556Z,100827.00
2022-07-26T23:14:59.114Z,100824.38
2022-07-26T23:17:25.640Z,100826.22
2022-07-26T23:19:52.176Z,100823.56
2022-07-26T23:22:18.653Z,100832.50
2022-07-26T23:24:45.137Z,100834.31
2022-07-26T23:27:14.339Z,100833.47
2022-07-26T23:29:44.652Z,100836.13
2022-07-26T23:32:12.601Z,100835.25
2022-07-26T23:34:39.673Z,100833.53
2022-07-26T23:37:06.141Z,100831.75
2022-07-26T23:39:32.734Z,100830.03
2022-07-26T23:42:02.911Z,100830.94
2022-07-26T23:44:30.603Z,100836.28
2022-07-26T23:46:58.579Z,100835.41
2022-07-26T23:49:25.453Z,100830.09
2022-07-26T23:51:52.329Z,100829.25
2022-07-26T23:54:19.054Z,100824.78
2022-07-26T23:56:45.806Z,100827.44
2022-07-26T23:59:13.704Z,100831.88
